sensor_id;sensor_type;location;lat;lon;timestamp;pressure;altitude;pressure_sealevel;temperature;humidity
70589;BME280;58152;49.202;18.744;2023-04-08T00:00:36;97367.00;;;3.72;71.15
70589;BME280;58152;49.202;18.744;2023-04-08T00:03:02;97359.22;;;3.71;71.55
70589;BME280;58152;49.202;18.744;2023-04-08T00:05:27;97367.91;;;3.71;71.06
70589;BME280;58152;49.202;18.744;2023-04-08T00:07:53;97358.41;;;3.69;71.21
70589;BME280;58152;49.202;18.744;2023-04-08T00:10:19;97357.53;;;3.70;71.44
70589;BME280;58152;49.202;18.744;2023-04-08T00:12:45;97361.03;;;3.67;71.17
70589;BME280;58152;49.202;18.744;2023-04-08T00:15:11;97352.50;;;3.62;71.11
70589;BME280;58152;49.202;18.744;2023-04-08T00:17:36;97359.38;;;3.62;71.44
70589;BME280;58152;49.202;18.744;2023-04-08T00:20:02;97358.53;;;3.63;71.64
70589;BME280;58152;49.202;18.744;2023-04-08T00:22:28;97364.56;;;3.62;71.40
70589;BME280;58152;49.202;18.744;2023-04-08T00:24:54;97368.06;;;3.61;71.70
70589;BME280;58152;49.202;18.744;2023-04-08T00:27:19;97363.72;;;3.61;71.54
70589;BME280;58152;49.202;18.744;2023-04-08T00:29:45;97367.22;;;3.60;71.22
70589;BME280;58152;49.202;18.744;2023-04-08T00:32:10;97369.75;;;3.62;71.08
70589;BME280;58152;49.202;18.744;2023-04-08T00:34:36;97366.31;;;3.61;71.17
70589;BME280;58152;49.202;18.744;2023-04-08T00:37:02;97367.25;;;3.59;71.18
70589;BME280;58152;49.202;18.744;2023-04-08T00:39:27;97370.66;;;3.61;71.15
70589;BME280;58152;49.202;18.744;2023-04-08T00:41:53;97365.50;;;3.59;71.18
70589;BME280;58152;49.202;18.744;2023-04-08T00:44:18;97366.44;;;3.55;71.17
70589;BME280;58152;49.202;18.744;2023-04-08T00:46:43;97365.63;;;3.53;71.55
70589;BME280;58152;49.202;18.744;2023-04-08T00:49:09;97369.84;;;3.57;71.47
70589;BME280;58152;49.202;18.744;2023-04-08T00:51:35;97374.06;;;3.64;71.58
70589;BME280;58152;49.202;18.744;2023-04-08T00:54:04;97376.53;;;3.72;72.00
70589;BME280;58152;49.202;18.744;2023-04-08T00:56:31;97369.56;;;3.74;71.54
70589;BME280;58152;49.202;18.744;2023-04-08T00:58:58;97374.63;;;3.81;71.53
70589;BME280;58152;49.202;18.744;2023-04-08T01:01:35;97382.25;;;3.89;71.55
70589;BME280;58152;49.202;18.744;2023-04-08T01:06:37;97384.72;;;3.97;71.46
70589;BME280;58152;49.202;18.744;2023-04-08T01:09:08;97383.91;;;3.93;71.43
70589;BME280;58152;49.202;18.744;2023-04-08T01:11:34;97384.03;;;3.87;71.33
70589;BME280;58152;49.202;18.744;2023-04-08T01:14:04;97382.34;;;3.85;71.13
70589;BME280;58152;49.202;18.744;2023-04-08T01:16:31;97379.00;;;3.78;71.31
70589;BME280;58152;49.202;18.744;2023-04-08T01:18:57;97385.97;;;3.74;70.94
70589;BME280;58152;49.202;18.744;2023-04-08T01:21:24;97389.47;;;3.73;71.67
70589;BME280;58152;49.202;18.744;2023-04-08T01:24:03;97374.03;;;3.67;71.75
70589;BME280;58152;49.202;18.744;2023-04-08T01:26:31;97383.53;;;3.67;72.08
70589;BME280;58152;49.202;18.744;2023-04-08T01:28:58;97381.03;;;3.61;71.88
70589;BME280;58152;49.202;18.744;2023-04-08T01:31:26;97381.13;;;3.58;72.21
70589;BME280;58152;49.202;18.744;2023-04-08T01:33:52;97386.31;;;3.56;72.09
70589;BME280;58152;49.202;18.744;2023-04-08T01:36:19;97382.81;;;3.57;72.06
70589;BME280;58152;49.202;18.744;2023-04-08T01:38:46;97389.75;;;3.56;71.90
70589;BME280;58152;49.202;18.744;2023-04-08T01:41:12;97391.41;;;3.62;72.66
70589;BME280;58152;49.202;18.744;2023-04-08T01:43:41;97377.50;;;3.65;72.24
70589;BME280;58152;49.202;18.744;2023-04-08T01:46:09;97380.88;;;3.71;71.95
70589;BME280;58152;49.202;18.744;2023-04-08T01:48:36;97393.78;;;3.74;71.92
70589;BME280;58152;49.202;18.744;2023-04-08T01:51:03;97389.50;;;3.70;72.32
70589;BME280;58152;49.202;18.744;2023-04-08T01:53:30;97387.81;;;3.69;71.86
70589;BME280;58152;49.202;18.744;2023-04-08T01:56:08;97395.59;;;3.69;71.65
70589;BME280;58152;49.202;18.744;2023-04-08T01:58:41;97399.94;;;3.69;71.96
70589;BME280;58152;49.202;18.744;2023-04-08T02:01:10;97398.22;;;3.66;71.82
70589;BME280;58152;49.202;18.744;2023-04-08T02:03:37;97387.84;;;3.66;72.23
70589;BME280;58152;49.202;18.744;2023-04-08T02:06:04;97392.31;;;3.60;72.02
70589;BME280;58152;49.202;18.744;2023-04-08T02:08:29;97398.34;;;3.60;72.33
70589;BME280;58152;49.202;18.744;2023-04-08T02:10:55;97394.91;;;3.60;72.53
70589;BME280;58152;49.202;18.744;2023-04-08T02:13:20;97403.56;;;3.57;72.33
70589;BME280;58152;49.202;18.744;2023-04-08T02:15:51;97397.53;;;3.56;72.40
70589;BME280;58152;49.202;18.744;2023-04-08T02:18:25;97401.88;;;3.56;72.39
70589;BME280;58152;49.202;18.744;2023-04-08T02:21:08;97399.28;;;3.56;72.21
70589;BME280;58152;49.202;18.744;2023-04-08T02:23:37;97407.09;;;3.54;72.56
70589;BME280;58152;49.202;18.744;2023-04-08T02:26:07;97404.53;;;3.53;72.60
70589;BME280;58152;49.202;18.744;2023-04-08T02:28:38;97402.03;;;3.48;72.54
70589;BME280;58152;49.202;18.744;2023-04-08T02:31:04;97410.56;;;3.53;72.35
70589;BME280;58152;49.202;18.744;2023-04-08T02:33:33;97408.00;;;3.52;72.71
70589;BME280;58152;49.202;18.744;2023-04-08T02:36:00;97407.13;;;3.51;72.48
70589;BME280;58152;49.202;18.744;2023-04-08T02:38:27;97412.31;;;3.53;72.78
70589;BME280;58152;49.202;18.744;2023-04-08T02:40:55;97402.06;;;3.45;72.37
70589;BME280;58152;49.202;18.744;2023-04-08T02:43:20;97408.91;;;3.49;72.59
70589;BME280;58152;49.202;18.744;2023-04-08T02:45:46;97406.31;;;3.48;72.63
70589;BME280;58152;49.202;18.744;2023-04-08T02:48:11;97405.47;;;3.47;72.63
70589;BME280;58152;49.202;18.744;2023-04-08T02:50:37;97411.50;;;3.48;72.82
70589;BME280;58152;49.202;18.744;2023-04-08T02:53:04;97419.28;;;3.48;72.99
70589;BME280;58152;49.202;18.744;2023-04-08T02:55:29;97410.66;;;3.47;72.75
70589;BME280;58152;49.202;18.744;2023-04-08T02:57:55;97421.03;;;3.49;72.92
70589;BME280;58152;49.202;18.744;2023-04-08T03:00:20;97421.03;;;3.49;72.61
70589;BME280;58152;49.202;18.744;2023-04-08T03:02:45;97417.59;;;3.47;72.87
70589;BME280;58152;49.202;18.744;2023-04-08T03:05:11;97428.81;;;3.49;72.88
70589;BME280;58152;49.202;18.744;2023-04-08T03:07:36;97422.78;;;3.47;72.71
70589;BME280;58152;49.202;18.744;2023-04-08T03:10:02;97423.66;;;3.46;72.84
70589;BME280;58152;49.202;18.744;2023-04-08T03:12:28;97422.78;;;3.48;72.71
70589;BME280;58152;49.202;18.744;2023-04-08T03:14:54;97431.41;;;3.49;72.90
70589;BME280;58152;49.202;18.744;2023-04-08T03:17:19;97422.81;;;3.45;72.75
70589;BME280;58152;49.202;18.744;2023-04-08T03:19:45;97430.56;;;3.47;72.90
70589;BME280;58152;49.202;18.744;2023-04-08T03:22:12;97427.09;;;3.46;72.75
70589;BME280;58152;49.202;18.744;2023-04-08T03:24:37;97428.00;;;3.45;72.46
70589;BME280;58152;49.202;18.744;2023-04-08T03:27:03;97442.72;;;3.45;73.08
70589;BME280;58152;49.202;18.744;2023-04-08T03:29:28;97433.19;;;3.45;72.60
70589;BME280;58152;49.202;18.744;2023-04-08T03:31:53;97447.00;;;3.46;72.73
70589;BME280;58152;49.202;18.744;2023-04-08T03:34:19;97440.94;;;3.47;72.95
70589;BME280;58152;49.202;18.744;2023-04-08T03:36:45;97440.94;;;3.47;72.74
70589;BME280;58152;49.202;18.744;2023-04-08T03:39:10;97442.63;;;3.48;72.71
70589;BME280;58152;49.202;18.744;2023-04-08T03:41:36;97449.56;;;3.49;72.95
70589;BME280;58152;49.202;18.744;2023-04-08T03:44:01;97440.97;;;3.45;72.84
70589;BME280;58152;49.202;18.744;2023-04-08T03:46:27;97446.13;;;3.48;73.14
70589;BME280;58152;49.202;18.744;2023-04-08T03:48:52;97441.81;;;3.46;72.73
70589;BME280;58152;49.202;18.744;2023-04-08T03:51:18;97447.84;;;3.46;73.10
70589;BME280;58152;49.202;18.744;2023-04-08T03:53:43;97453.00;;;3.48;73.06
70589;BME280;58152;49.202;18.744;2023-04-08T03:56:09;97454.75;;;3.49;72.90
70589;BME280;58152;49.202;18.744;2023-04-08T03:58:34;97460.78;;;3.49;73.05
70589;BME280;58152;49.202;18.744;2023-04-08T04:01:00;97455.63;;;3.46;72.86
70589;BME280;58152;49.202;18.744;2023-04-08T04:03:25;97465.09;;;3.50;72.91
70589;BME280;58152;49.202;18.744;2023-04-08T04:05:51;97466.88;;;3.48;72.81
70589;BME280;58152;49.202;18.744;2023-04-08T04:08:16;97462.53;;;3.49;73.22
70589;BME280;58152;49.202;18.744;2023-04-08T04:10:42;97466.88;;;3.47;73.34
70589;BME280;58152;49.202;18.744;2023-04-08T04:13:07;97472.94;;;3.46;73.42
70589;BME280;58152;49.202;18.744;2023-04-08T04:15:32;97481.59;;;3.46;73.14
70589;BME280;58152;49.202;18.744;2023-04-08T04:17:58;97485.88;;;3.47;73.50
70589;BME280;58152;49.202;18.744;2023-04-08T04:20:23;97474.69;;;3.45;73.26
70589;BME280;58152;49.202;18.744;2023-04-08T04:22:50;97480.69;;;3.47;73.65
70589;BME280;58152;49.202;18.744;2023-04-08T04:25:16;97487.63;;;3.47;73.40
70589;BME280;58152;49.202;18.744;2023-04-08T04:27:41;97485.91;;;3.46;73.40
70589;BME280;58152;49.202;18.744;2023-04-08T04:30:07;97490.25;;;3.45;73.43
70589;BME280;58152;49.202;18.744;2023-04-08T04:32:33;97495.44;;;3.45;73.51
70589;BME280;58152;49.202;18.744;2023-04-08T04:34:59;97498.88;;;3.46;73.81
70589;BME280;58152;49.202;18.744;2023-04-08T04:37:24;97488.53;;;3.44;73.48
70589;BME280;58152;49.202;18.744;2023-04-08T04:39:50;97491.13;;;3.44;73.56
70589;BME280;58152;49.202;18.744;2023-04-08T04:42:16;97494.59;;;3.45;73.52
70589;BME280;58152;49.202;18.744;2023-04-08T04:44:41;97500.59;;;3.48;73.37
70589;BME280;58152;49.202;18.744;2023-04-08T04:47:06;97494.56;;;3.46;73.35
70589;BME280;58152;49.202;18.744;2023-04-08T04:49:32;97498.84;;;3.47;73.41
70589;BME280;58152;49.202;18.744;2023-04-08T04:51:57;97491.97;;;3.46;73.74
70589;BME280;58152;49.202;18.744;2023-04-08T04:54:22;97503.22;;;3.45;73.27
70589;BME280;58152;49.202;18.744;2023-04-08T04:56:48;97498.00;;;3.47;73.55
70589;BME280;58152;49.202;18.744;2023-04-08T04:59:13;97504.06;;;3.46;73.68
70589;BME280;58152;49.202;18.744;2023-04-08T05:01:39;97503.19;;;3.47;73.34
70589;BME280;58152;49.202;18.744;2023-04-08T05:04:05;97508.41;;;3.45;73.17
70589;BME280;58152;49.202;18.744;2023-04-08T05:06:31;97510.97;;;3.48;73.18
70589;BME280;58152;49.202;18.744;2023-04-08T05:08:56;97510.97;;;3.48;73.27
70589;BME280;58152;49.202;18.744;2023-04-08T05:11:22;97517.88;;;3.48;73.53
70589;BME280;58152;49.202;18.744;2023-04-08T05:13:47;97523.88;;;3.51;73.22
70589;BME280;58152;49.202;18.744;2023-04-08T05:16:13;97521.28;;;3.51;73.48
70589;BME280;58152;49.202;18.744;2023-04-08T05:18:38;97523.88;;;3.51;73.25
70589;BME280;58152;49.202;18.744;2023-04-08T05:21:03;97524.72;;;3.52;73.63
70589;BME280;58152;49.202;18.744;2023-04-08T05:23:29;97520.47;;;3.49;73.74
70589;BME280;58152;49.202;18.744;2023-04-08T05:25:54;97524.75;;;3.50;73.54
70589;BME280;58152;49.202;18.744;2023-04-08T05:28:21;97524.69;;;3.55;73.43
70589;BME280;58152;49.202;18.744;2023-04-08T05:30:50;97526.41;;;3.58;73.33
70589;BME280;58152;49.202;18.744;2023-04-08T05:33:16;97525.50;;;3.57;73.39
70589;BME280;58152;49.202;18.744;2023-04-08T05:35:41;97528.97;;;3.59;73.73
70589;BME280;58152;49.202;18.744;2023-04-08T05:38:07;97526.41;;;3.56;73.53
70589;BME280;58152;49.202;18.744;2023-04-08T05:40:32;97528.97;;;3.59;73.73
70589;BME280;58152;49.202;18.744;2023-04-08T05:42:57;97530.63;;;3.63;73.50
70589;BME280;58152;49.202;18.744;2023-04-08T05:45:23;97525.44;;;3.63;73.67
70589;BME280;58152;49.202;18.744;2023-04-08T05:47:48;97533.19;;;3.65;73.53
70589;BME280;58152;49.202;18.744;2023-04-08T05:50:14;97538.34;;;3.68;73.71
70589;BME280;58152;49.202;18.744;2023-04-08T05:52:43;97537.53;;;3.64;73.45
70589;BME280;58152;49.202;18.744;2023-04-08T05:55:12;97547.03;;;3.67;73.86
70589;BME280;58152;49.202;18.744;2023-04-08T05:57:38;97547.03;;;3.67;73.59
70589;BME280;58152;49.202;18.744;2023-04-08T06:00:05;97552.13;;;3.70;73.59
70589;BME280;58152;49.202;18.744;2023-04-08T06:02:31;97553.84;;;3.71;73.40
70589;BME280;58152;49.202;18.744;2023-04-08T06:04:56;97549.50;;;3.73;73.63
70589;BME280;58152;49.202;18.744;2023-04-08T06:07:21;97549.47;;;3.74;73.67
70589;BME280;58152;49.202;18.744;2023-04-08T06:09:47;97556.38;;;3.77;73.18
70589;BME280;58152;49.202;18.744;2023-04-08T06:12:12;97558.03;;;3.79;73.08
70589;BME280;58152;49.202;18.744;2023-04-08T06:14:38;97561.50;;;3.80;73.19
70589;BME280;58152;49.202;18.744;2023-04-08T06:17:03;97558.91;;;3.80;73.29
70589;BME280;58152;49.202;18.744;2023-04-08T06:19:29;97567.50;;;3.83;73.29
70589;BME280;58152;49.202;18.744;2023-04-08T06:21:54;97564.03;;;3.86;73.37
70589;BME280;58152;49.202;18.744;2023-04-08T06:24:24;97565.75;;;3.84;73.09
70589;BME280;58152;49.202;18.744;2023-04-08T06:26:50;97572.63;;;3.88;73.31
70589;BME280;58152;49.202;18.744;2023-04-08T06:29:17;97563.09;;;3.89;73.00
70589;BME280;58152;49.202;18.744;2023-04-08T06:31:42;97576.84;;;3.94;73.22
70589;BME280;58152;49.202;18.744;2023-04-08T06:34:08;97575.97;;;3.96;73.11
70589;BME280;58152;49.202;18.744;2023-04-08T06:36:33;97572.47;;;3.97;73.37
70589;BME280;58152;49.202;18.744;2023-04-08T06:38:58;97569.00;;;3.98;73.44
70589;BME280;58152;49.202;18.744;2023-04-08T06:41:24;97572.47;;;3.97;73.42
70589;BME280;58152;49.202;18.744;2023-04-08T06:43:49;97581.06;;;4.04;73.11
70589;BME280;58152;49.202;18.744;2023-04-08T06:46:15;97575.00;;;4.03;73.14
70589;BME280;58152;49.202;18.744;2023-04-08T06:48:40;97582.72;;;4.08;73.46
70589;BME280;58152;49.202;18.744;2023-04-08T06:51:06;97580.13;;;4.08;73.31
70589;BME280;58152;49.202;18.744;2023-04-08T06:53:32;97585.31;;;4.08;73.29
70589;BME280;58152;49.202;18.744;2023-04-08T06:55:58;97593.03;;;4.13;73.16
70589;BME280;58152;49.202;18.744;2023-04-08T06:58:23;97586.06;;;4.15;73.08
70589;BME280;58152;49.202;18.744;2023-04-08T07:00:49;97587.72;;;4.19;73.17
70589;BME280;58152;49.202;18.744;2023-04-08T07:03:14;97589.41;;;4.23;72.91
70589;BME280;58152;49.202;18.744;2023-04-08T07:05:40;97588.47;;;4.25;72.93
70589;BME280;58152;49.202;18.744;2023-04-08T07:08:06;97593.59;;;4.30;72.55
70589;BME280;58152;49.202;18.744;2023-04-08T07:10:33;97584.06;;;4.30;72.82
70589;BME280;58152;49.202;18.744;2023-04-08T07:12:59;97594.41;;;4.33;72.54
70589;BME280;58152;49.202;18.744;2023-04-08T07:15:24;97596.94;;;4.38;72.38
70589;BME280;58152;49.202;18.744;2023-04-08T07:17:50;97590.84;;;4.39;72.01
70589;BME280;58152;49.202;18.744;2023-04-08T07:20:15;97597.69;;;4.43;72.06
70589;BME280;58152;49.202;18.744;2023-04-08T07:22:41;97595.97;;;4.44;72.46
70589;BME280;58152;49.202;18.744;2023-04-08T07:25:06;97605.50;;;4.43;72.03
70589;BME280;58152;49.202;18.744;2023-04-08T07:27:33;97601.97;;;4.47;71.96
70589;BME280;58152;49.202;18.744;2023-04-08T07:29:58;97597.69;;;4.45;72.03
70589;BME280;58152;49.202;18.744;2023-04-08T07:32:24;97608.00;;;4.49;72.52
70589;BME280;58152;49.202;18.744;2023-04-08T07:34:49;97608.81;;;4.51;71.85
70589;BME280;58152;49.202;18.744;2023-04-08T07:37:15;97605.34;;;4.54;72.01
70589;BME280;58152;49.202;18.744;2023-04-08T07:39:41;97609.59;;;4.56;71.86
70589;BME280;58152;49.202;18.744;2023-04-08T07:42:07;97606.03;;;4.62;71.96
70589;BME280;58152;49.202;18.744;2023-04-08T07:44:32;97606.81;;;4.67;72.32
70589;BME280;58152;49.202;18.744;2023-04-08T07:46:58;97609.44;;;4.66;71.62
70589;BME280;58152;49.202;18.744;2023-04-08T07:49:23;97609.31;;;4.72;71.91
70589;BME280;58152;49.202;18.744;2023-04-08T07:51:49;97623.94;;;4.79;71.85
70589;BME280;58152;49.202;18.744;2023-04-08T07:54:14;97626.44;;;4.83;72.05
70589;BME280;58152;49.202;18.744;2023-04-08T07:56:42;97625.56;;;4.84;71.59
70589;BME280;58152;49.202;18.744;2023-04-08T07:59:09;97623.72;;;4.91;71.65
70589;BME280;58152;49.202;18.744;2023-04-08T08:01:35;97635.72;;;4.98;72.11
70589;BME280;58152;49.202;18.744;2023-04-08T08:04:01;97622.78;;;4.95;71.24
70589;BME280;58152;49.202;18.744;2023-04-08T08:06:26;97633.00;;;5.04;71.29
70589;BME280;58152;49.202;18.744;2023-04-08T08:08:52;97629.47;;;5.07;71.21
70589;BME280;58152;49.202;18.744;2023-04-08T08:11:17;97626.84;;;5.08;71.26
70589;BME280;58152;49.202;18.744;2023-04-08T08:13:43;97633.69;;;5.13;70.97
70589;BME280;58152;49.202;18.744;2023-04-08T08:16:11;97640.63;;;5.14;70.38
70589;BME280;58152;49.202;18.744;2023-04-08T08:18:37;97640.63;;;5.14;70.69
70589;BME280;58152;49.202;18.744;2023-04-08T08:21:04;97638.91;;;5.14;70.59
70589;BME280;58152;49.202;18.744;2023-04-08T08:23:30;97632.00;;;5.12;70.15
70589;BME280;58152;49.202;18.744;2023-04-08T08:26:00;97648.41;;;5.15;70.52
70589;BME280;58152;49.202;18.744;2023-04-08T08:28:26;97645.81;;;5.15;70.04
70589;BME280;58152;49.202;18.744;2023-04-08T08:30:51;97645.75;;;5.18;70.15
70589;BME280;58152;49.202;18.744;2023-04-08T08:33:17;97642.22;;;5.22;69.68
70589;BME280;58152;49.202;18.744;2023-04-08T08:35:42;97649.03;;;5.26;70.22
70589;BME280;58152;49.202;18.744;2023-04-08T08:38:08;97649.00;;;5.29;70.01
70589;BME280;58152;49.202;18.744;2023-04-08T08:40:33;97643.84;;;5.26;69.85
70589;BME280;58152;49.202;18.744;2023-04-08T08:42:59;97652.44;;;5.30;70.09
70589;BME280;58152;49.202;18.744;2023-04-08T08:45:25;97650.75;;;5.29;69.93
70589;BME280;58152;49.202;18.744;2023-04-08T08:47:51;97635.25;;;5.23;70.05
70589;BME280;58152;49.202;18.744;2023-04-08T08:50:17;97643.91;;;5.23;70.24
70589;BME280;58152;49.202;18.744;2023-04-08T08:52:50;97648.28;;;5.23;70.04
70589;BME280;58152;49.202;18.744;2023-04-08T08:55:19;97651.63;;;5.28;70.29
70589;BME280;58152;49.202;18.744;2023-04-08T08:57:45;97643.75;;;5.31;69.96
70589;BME280;58152;49.202;18.744;2023-04-08T09:00:11;97648.84;;;5.35;70.30
70589;BME280;58152;49.202;18.744;2023-04-08T09:02:40;97650.50;;;5.41;70.02
70589;BME280;58152;49.202;18.744;2023-04-08T09:05:06;97662.50;;;5.48;70.36
70589;BME280;58152;49.202;18.744;2023-04-08T09:07:35;97663.28;;;5.52;70.30
70589;BME280;58152;49.202;18.744;2023-04-08T09:10:01;97665.00;;;5.54;69.73
70589;BME280;58152;49.202;18.744;2023-04-08T09:12:27;97668.25;;;5.63;69.80
70589;BME280;58152;49.202;18.744;2023-04-08T09:15:06;97666.50;;;5.65;69.32
70589;BME280;58152;49.202;18.744;2023-04-08T09:17:37;97669.06;;;5.66;69.56
70589;BME280;58152;49.202;18.744;2023-04-08T09:20:12;97675.97;;;5.69;69.09
70589;BME280;58152;49.202;18.744;2023-04-08T09:23:01;97673.28;;;5.72;69.35
70589;BME280;58152;49.202;18.744;2023-04-08T09:25:33;97667.22;;;5.73;69.31
70589;BME280;58152;49.202;18.744;2023-04-08T09:27:59;97669.78;;;5.74;68.93
70589;BME280;58152;49.202;18.744;2023-04-08T09:30:26;97670.63;;;5.75;69.38
70589;BME280;58152;49.202;18.744;2023-04-08T09:32:54;97661.03;;;5.77;69.45
70589;BME280;58152;49.202;18.744;2023-04-08T09:35:20;97665.38;;;5.78;69.08
70589;BME280;58152;49.202;18.744;2023-04-08T09:37:46;97673.97;;;5.80;69.25
70589;BME280;58152;49.202;18.744;2023-04-08T09:40:12;97667.13;;;5.76;69.07
70589;BME280;58152;49.202;18.744;2023-04-08T09:42:43;97667.97;;;5.78;68.79
70589;BME280;58152;49.202;18.744;2023-04-08T09:45:11;97670.56;;;5.78;68.83
70589;BME280;58152;49.202;18.744;2023-04-08T09:47:43;97676.59;;;5.80;68.58
70589;BME280;58152;49.202;18.744;2023-04-08T09:50:15;97666.16;;;5.80;68.67
70589;BME280;58152;49.202;18.744;2023-04-08T09:52:45;97671.34;;;5.81;68.60
70589;BME280;58152;49.202;18.744;2023-04-08T09:55:19;97675.63;;;5.84;68.89
70589;BME280;58152;49.202;18.744;2023-04-08T09:57:57;97671.25;;;5.86;68.02
70589;BME280;58152;49.202;18.744;2023-04-08T10:00:29;97662.66;;;5.82;68.13
70589;BME280;58152;49.202;18.744;2023-04-08T10:05:37;97665.94;;;5.92;68.24
70589;BME280;58152;49.202;18.744;2023-04-08T10:08:06;97662.41;;;5.96;68.40
70589;BME280;58152;49.202;18.744;2023-04-08T10:10:33;97673.47;;;6.04;68.18
70589;BME280;58152;49.202;18.744;2023-04-08T10:13:02;97671.75;;;6.05;68.45
70589;BME280;58152;49.202;18.744;2023-04-08T10:15:29;97673.38;;;6.09;68.35
70589;BME280;58152;49.202;18.744;2023-04-08T10:22:59;97676.88;;;6.08;67.36
70589;BME280;58152;49.202;18.744;2023-04-08T10:27:50;97672.59;;;6.05;68.14
70589;BME280;58152;49.202;18.744;2023-04-08T10:32:50;97674.34;;;6.05;67.91
70589;BME280;58152;49.202;18.744;2023-04-08T10:35:32;97672.72;;;6.01;67.92
70589;BME280;58152;49.202;18.744;2023-04-08T10:37:59;97671.97;;;5.96;67.93
70589;BME280;58152;49.202;18.744;2023-04-08T10:40:25;97673.63;;;5.98;67.44
70589;BME280;58152;49.202;18.744;2023-04-08T10:42:54;97667.63;;;5.95;67.84
70589;BME280;58152;49.202;18.744;2023-04-08T10:45:23;97679.72;;;5.97;67.91
70589;BME280;58152;49.202;18.744;2023-04-08T10:47:49;97669.38;;;5.94;67.32
70589;BME280;58152;49.202;18.744;2023-04-08T10:50:19;97678.81;;;5.98;67.36
70589;BME280;58152;49.202;18.744;2023-04-08T10:52:53;97677.88;;;6.02;67.47
70589;BME280;58152;49.202;18.744;2023-04-08T10:55:23;97674.38;;;6.03;67.67
70589;BME280;58152;49.202;18.744;2023-04-08T10:57:49;97676.06;;;6.06;67.28
70589;BME280;58152;49.202;18.744;2023-04-08T11:00:39;97677.72;;;6.08;67.82
70589;BME280;58152;49.202;18.744;2023-04-08T11:03:07;97671.72;;;6.06;67.32
70589;BME280;58152;49.202;18.744;2023-04-08T11:05:33;97675.97;;;6.09;67.74
70589;BME280;58152;49.202;18.744;2023-04-08T11:08:01;97677.72;;;6.08;67.91
70589;BME280;58152;49.202;18.744;2023-04-08T11:10:27;97682.88;;;6.11;67.32
70589;BME280;58152;49.202;18.744;2023-04-08T11:12:56;97676.78;;;6.13;67.28
70589;BME280;58152;49.202;18.744;2023-04-08T11:15:25;97666.44;;;6.09;67.62
70589;BME280;58152;49.202;18.744;2023-04-08T11:17:52;97675.00;;;6.15;67.43
70589;BME280;58152;49.202;18.744;2023-04-08T11:20:27;97675.91;;;6.12;67.23
70589;BME280;58152;49.202;18.744;2023-04-08T11:22:53;97674.06;;;6.17;67.97
70589;BME280;58152;49.202;18.744;2023-04-08T11:25:19;97671.34;;;6.23;67.97
70589;BME280;58152;49.202;18.744;2023-04-08T11:27:48;97667.63;;;6.32;67.51
70589;BME280;58152;49.202;18.744;2023-04-08T11:30:13;97671.97;;;6.33;67.07
70589;BME280;58152;49.202;18.744;2023-04-08T11:32:39;97672.84;;;6.32;66.65
70589;BME280;58152;49.202;18.744;2023-04-08T11:35:05;97669.28;;;6.36;66.51
70589;BME280;58152;49.202;18.744;2023-04-08T11:37:40;97663.31;;;6.32;66.84
70589;BME280;58152;49.202;18.744;2023-04-08T11:40:10;97674.44;;;6.39;66.67
70589;BME280;58152;49.202;18.744;2023-04-08T11:42:37;97669.16;;;6.41;66.58
70589;BME280;58152;49.202;18.744;2023-04-08T11:45:11;97666.63;;;6.39;66.09
70589;BME280;58152;49.202;18.744;2023-04-08T11:47:39;97665.59;;;6.46;66.08
70589;BME280;58152;49.202;18.744;2023-04-08T11:50:05;97658.72;;;6.42;65.95
70589;BME280;58152;49.202;18.744;2023-04-08T11:53:00;97674.78;;;6.59;65.97
70589;BME280;58152;49.202;18.744;2023-04-08T11:55:26;97670.34;;;6.65;65.82
70589;BME280;58152;49.202;18.744;2023-04-08T11:57:53;97660.66;;;6.70;65.46
70589;BME280;58152;49.202;18.744;2023-04-08T12:00:20;97661.34;;;6.76;65.43
70589;BME280;58152;49.202;18.744;2023-04-08T12:02:46;97661.28;;;6.79;65.93
70589;BME280;58152;49.202;18.744;2023-04-08T12:05:15;97663.56;;;6.92;65.42
70589;BME280;58152;49.202;18.744;2023-04-08T12:07:42;97664.84;;;7.09;65.51
70589;BME280;58152;49.202;18.744;2023-04-08T12:10:08;97667.19;;;7.19;64.37
70589;BME280;58152;49.202;18.744;2023-04-08T12:12:34;97664.47;;;7.23;64.56
70589;BME280;58152;49.202;18.744;2023-04-08T12:15:00;97657.41;;;7.27;64.29
70589;BME280;58152;49.202;18.744;2023-04-08T12:17:25;97660.97;;;7.24;64.23
70589;BME280;58152;49.202;18.744;2023-04-08T12:19:51;97659.28;;;7.22;63.91
70589;BME280;58152;49.202;18.744;2023-04-08T12:22:16;97661.00;;;7.23;64.93
70589;BME280;58152;49.202;18.744;2023-04-08T12:24:52;97663.41;;;7.30;64.61
70589;BME280;58152;49.202;18.744;2023-04-08T12:27:18;97660.75;;;7.32;64.00
70589;BME280;58152;49.202;18.744;2023-04-08T12:29:43;97663.09;;;7.41;63.94
70589;BME280;58152;49.202;18.744;2023-04-08T12:32:10;97656.06;;;7.45;64.33
70589;BME280;58152;49.202;18.744;2023-04-08T12:34:36;97660.97;;;7.55;63.26
70589;BME280;58152;49.202;18.744;2023-04-08T12:37:01;97652.38;;;7.52;62.48
70589;BME280;58152;49.202;18.744;2023-04-08T12:39:27;97668.06;;;7.52;61.33
70589;BME280;58152;49.202;18.744;2023-04-08T12:41:52;97663.94;;;7.43;61.87
70589;BME280;58152;49.202;18.744;2023-04-08T12:44:18;97661.47;;;7.37;61.33
70589;BME280;58152;49.202;18.744;2023-04-08T12:46:43;97665.03;;;7.34;61.18
70589;BME280;58152;49.202;18.744;2023-04-08T12:49:09;97665.19;;;7.28;61.45
70589;BME280;58152;49.202;18.744;2023-04-08T12:51:34;97662.72;;;7.24;61.00
70589;BME280;58152;49.202;18.744;2023-04-08T12:54:01;97664.59;;;7.19;60.29
70589;BME280;58152;49.202;18.744;2023-04-08T12:56:28;97665.53;;;7.16;59.90
70589;BME280;58152;49.202;18.744;2023-04-08T12:58:54;97662.94;;;7.14;60.28
70589;BME280;58152;49.202;18.744;2023-04-08T13:01:22;97660.34;;;7.14;59.86
70589;BME280;58152;49.202;18.744;2023-04-08T13:03:48;97660.41;;;7.13;60.13
70589;BME280;58152;49.202;18.744;2023-04-08T13:06:13;97657.72;;;7.14;60.25
70589;BME280;58152;49.202;18.744;2023-04-08T13:08:40;97672.28;;;7.23;60.57
70589;BME280;58152;49.202;18.744;2023-04-08T13:11:06;97673.91;;;7.29;60.44
70589;BME280;58152;49.202;18.744;2023-04-08T13:13:32;97660.84;;;7.29;60.30